Time,TemperatureF,DewpointF,PressureIn,WindDirection,WindDirectionDegrees,WindSpeedMPH,WindSpeedGustMPH,Humidity,HourlyPrecipIn,Conditions,Clouds,dailyrainin,SoftwareType,DateUTC
2013-06-09 00:00:00,68.0,61.6,29.91,WSW,248,1.6,2.0,80,0.00,,---,0.00,VWS V14.00,2013-06-09 04:00:00,
2013-06-09 00:01:00,68.0,61.6,29.91,WNW,292,1.6,1.6,80,0.00,,---,0.00,VWS V14.00,2013-06-09 04:01:00,
2013-06-09 00:02:00,68.0,61.6,29.91,West,270,0.0,1.6,80,0.00,,---,0.00,VWS V14.00,2013-06-09 04:02:00,
2013-06-09 00:03:00,68.0,61.6,29.91,West,270,0.0,0.0,80,0.00,,---,0.00,VWS V14.00,2013-06-09 04:03:00,
2013-06-09 00:05:00,68.0,61.6,29.91,West,270,2.7,2.7,80,0.00,,---,0.00,VWS V14.00,2013-06-09 04:05:00,
2013-06-09 00:08:00,68.0,61.6,29.91,WNW,292,2.9,2.9,80,0.00,,---,0.00,VWS V14.00,2013-06-09 04:08:00,
2013-06-09 00:14:00,67.8,61.8,29.91,WSW,248,2.2,2.2,81,0.00,,---,0.00,VWS V14.00,2013-06-09 04:14:00,
2013-06-09 00:20:00,67.6,61.6,29.91,West,270,1.3,2.7,81,0.00,,---,0.00,VWS V14.00,2013-06-09 04:20:00,
2013-06-09 00:25:00,67.6,61.6,29.91,NW,315,1.6,1.6,81,0.00,,---,0.00,VWS V14.00,2013-06-09 04:25:00,
2013-06-09 00:30:00,67.6,61.6,29.91,NW,315,2.0,2.7,81,0.00,,---,0.00,VWS V14.00,2013-06-09 04:30:00,
2013-06-09 00:35:00,67.5,61.4,29.91,WNW,292,2.0,2.0,81,0.00,,---,0.00,VWS V14.00,2013-06-09 04:35:00,
2013-06-09 00:40:00,67.3,61.3,29.91,WNW,292,2.0,2.0,81,0.00,,---,0.00,VWS V14.00,2013-06-09 04:40:00,
2013-06-09 00:46:00,67.1,61.1,29.91,WNW,292,0.9,0.9,81,0.00,,---,0.00,VWS V14.00,2013-06-09 04:46:00,
2013-06-09 00:51:00,67.1,61.1,29.91,WNW,292,0.0,0.0,81,0.00,,---,0.00,VWS V14.00,2013-06-09 04:51:00,
2013-06-09 00:56:00,67.1,61.1,29.91,WNW,292,1.3,1.3,81,0.00,,---,0.00,VWS V14.00,2013-06-09 04:56:00,
2013-06-09 01:02:00,67.1,61.1,29.91,WNW,292,0.0,0.9,81,0.00,,---,0.00,VWS V14.00,2013-06-09 05:02:00,
2013-06-09 01:08:00,67.1,61.1,29.91,NNW,338,1.3,2.2,81,0.00,,---,0.00,VWS V14.00,2013-06-09 05:08:00,
2013-06-09 01:13:00,66.9,60.9,29.91,WNW,292,0.0,1.3,81,0.00,,---,0.00,VWS V14.00,2013-06-09 05:13:00,
2013-06-09 01:18:00,66.9,60.9,29.91,West,270,1.3,2.0,81,0.00,,---,0.00,VWS V14.00,2013-06-09 05:18:00,
2013-06-09 01:23:00,67.1,60.7,29.91,West,270,2.2,2.2,80,0.00,,---,0.00,VWS V14.00,2013-06-09 05:23:00,
2013-06-09 01:28:00,67.1,60.7,29.91,West,270,0.9,0.9,80,0.00,,---,0.00,VWS V14.00,2013-06-09 05:28:00,
2013-06-09 01:33:00,66.9,60.6,29.91,WNW,292,1.6,2.5,80,0.00,,---,0.00,VWS V14.00,2013-06-09 05:33:00,
2013-06-09 01:38:00,66.9,60.6,29.91,WNW,292,2.0,2.5,80,0.00,,---,0.00,VWS V14.00,2013-06-09 05:38:00,
2013-06-09 01:43:00,66.9,60.6,29.91,WSW,248,0.9,1.1,80,0.00,,---,0.00,VWS V14.00,2013-06-09 05:43:00,
2013-06-09 01:48:00,66.9,60.6,29.91,WNW,292,2.0,2.0,80,0.00,,---,0.00,VWS V14.00,2013-06-09 05:48:00,
2013-06-09 01:53:00,66.7,60.4,29.91,NW,315,1.1,1.1,80,0.00,,---,0.00,VWS V14.00,2013-06-09 05:53:00,
2013-06-09 01:58:00,66.6,60.2,29.91,West,270,1.3,2.5,80,0.00,,---,0.00,VWS V14.00,2013-06-09 05:58:00,
2013-06-09 02:03:00,66.6,60.2,29.91,WNW,292,2.5,2.5,80,0.00,,---,0.00,VWS V14.00,2013-06-09 06:03:00,
2013-06-09 02:08:00,66.4,60.4,29.91,NNW,338,4.9,4.9,81,0.00,,---,0.00,VWS V14.00,2013-06-09 06:08:00,
2013-06-09 02:13:00,66.6,60.2,29.91,WSW,248,2.9,3.1,80,0.00,,---,0.00,VWS V14.00,2013-06-09 06:13:00,
2013-06-09 02:19:00,66.4,60.0,29.91,NNW,338,2.7,2.7,80,0.00,,---,0.00,VWS V14.00,2013-06-09 06:19:00,
2013-06-09 02:24:00,66.4,60.0,29.91,WSW,248,2.2,2.2,80,0.00,,---,0.00,VWS V14.00,2013-06-09 06:24:00,
2013-06-09 02:29:00,66.4,60.0,29.91,WSW,248,2.0,2.5,80,0.00,,---,0.00,VWS V14.00,2013-06-09 06:29:00,
2013-06-09 02:35:00,66.4,60.0,29.91,WNW,292,2.7,2.7,80,0.00,,---,0.00,VWS V14.00,2013-06-09 06:35:00,
2013-06-09 02:40:00,66.2,59.9,29.91,WNW,292,1.3,2.9,80,0.00,,---,0.00,VWS V14.00,2013-06-09 06:40:00,
2013-06-09 02:45:00,66.2,59.9,29.91,WNW,292,2.2,2.7,80,0.00,,---,0.00,VWS V14.00,2013-06-09 06:45:00,
2013-06-09 02:50:00,66.2,59.9,29.91,WNW,292,3.1,3.1,80,0.00,,---,0.00,VWS V14.00,2013-06-09 06:50:00,
2013-06-09 02:56:00,66.0,60.0,29.91,NW,315,1.3,1.3,81,0.00,,---,0.00,VWS V14.00,2013-06-09 06:56:00,
2013-06-09 03:01:00,65.8,59.8,29.91,WNW,292,2.0,2.9,81,0.00,,---,0.00,VWS V14.00,2013-06-09 07:01:00,
2013-06-09 03:06:00,65.8,59.8,29.91,WNW,292,2.5,2.5,81,0.00,,---,0.00,VWS V14.00,2013-06-09 07:06:00,
2013-06-09 03:11:00,65.7,59.7,29.91,NNW,338,3.1,3.1,81,0.00,,---,0.00,VWS V14.00,2013-06-09 07:11:00,
2013-06-09 03:16:00,65.7,59.7,29.91,WSW,248,2.2,2.2,81,0.00,,---,0.00,VWS V14.00,2013-06-09 07:16:00,
2013-06-09 03:21:00,65.7,59.7,29.91,WNW,292,2.2,3.1,81,0.00,,---,0.00,VWS V14.00,2013-06-09 07:21:00,
2013-06-09 03:26:00,65.7,59.7,29.91,NW,315,1.6,2.0,81,0.00,,---,0.00,VWS V14.00,2013-06-09 07:26:00,
2013-06-09 03:31:00,65.7,59.7,29.91,NW,315,2.5,3.1,81,0.00,,---,0.00,VWS V14.00,2013-06-09 07:31:00,
2013-06-09 03:36:00,65.7,59.7,29.91,WNW,292,3.8,3.8,81,0.00,,---,0.00,VWS V14.00,2013-06-09 07:36:00,
2013-06-09 03:41:00,65.5,59.5,29.91,WSW,248,1.6,1.6,81,0.00,,---,0.00,VWS V14.00,2013-06-09 07:41:00,
2013-06-09 03:46:00,65.5,59.5,29.91,WSW,248,3.8,3.8,81,0.00,,---,0.00,VWS V14.00,2013-06-09 07:46:00,
2013-06-09 03:51:00,65.5,59.5,29.91,WSW,248,1.3,1.3,81,0.00,,---,0.00,VWS V14.00,2013-06-09 07:51:00,
2013-06-09 03:56:00,65.5,59.5,29.94,WNW,292,2.7,2.7,81,0.00,,---,0.00,VWS V14.00,2013-06-09 07:56:00,
2013-06-09 04:01:00,65.5,59.5,29.94,WNW,292,2.0,3.1,81,0.00,,---,0.00,VWS V14.00,2013-06-09 08:01:00,
2013-06-09 04:06:00,65.5,59.5,29.94,WNW,292,2.0,2.0,81,0.00,,---,0.00,VWS V14.00,2013-06-09 08:06:00,
2013-06-09 04:12:00,65.5,59.5,29.94,WSW,248,1.6,3.6,81,0.00,,---,0.00,VWS V14.00,2013-06-09 08:12:00,
2013-06-09 04:17:00,65.5,59.5,29.94,WSW,248,2.9,4.0,81,0.00,,---,0.00,VWS V14.00,2013-06-09 08:17:00,
2013-06-09 04:22:00,65.7,59.7,29.94,NW,315,4.0,4.0,81,0.00,,---,0.00,VWS V14.00,2013-06-09 08:22:00,
2013-06-09 04:27:00,65.5,59.5,29.94,WNW,292,1.1,3.6,81,0.00,,---,0.00,VWS V14.00,2013-06-09 08:27:00,
2013-06-09 04:32:00,65.5,59.5,29.94,WNW,292,2.2,2.9,81,0.00,,---,0.00,VWS V14.00,2013-06-09 08:32:00,
2013-06-09 04:38:00,65.5,59.5,29.94,ENE,68,3.1,3.1,81,0.00,,---,0.00,VWS V14.00,2013-06-09 08:38:00,
2013-06-09 04:43:00,65.5,59.5,29.94,WNW,292,1.1,1.1,81,0.00,,---,0.00,VWS V14.00,2013-06-09 08:43:00,
2013-06-09 04:48:00,65.5,59.5,29.94,NNE,22,0.0,1.3,81,0.00,,---,0.00,VWS V14.00,2013-06-09 08:48:00,
2013-06-09 04:53:00,65.3,59.3,29.94,SSW,202,0.0,0.0,81,0.00,,---,0.00,VWS V14.00,2013-06-09 08:53:00,
2013-06-09 04:58:00,65.3,59.3,29.94,ENE,68,0.9,0.9,81,0.00,,---,0.00,VWS V14.00,2013-06-09 08:58:00,
2013-06-09 05:03:00,65.3,59.3,29.94,NNW,338,3.1,3.1,81,0.00,,---,0.00,VWS V14.00,2013-06-09 09:03:00,
2013-06-09 05:08:00,65.3,59.3,29.94,NNE,22,0.0,0.0,81,0.00,,---,0.00,VWS V14.00,2013-06-09 09:08:00,
2013-06-09 05:13:00,65.3,59.0,29.94,NNE,22,2.0,2.0,80,0.00,,---,0.00,VWS V14.00,2013-06-09 09:13:00,
2013-06-09 05:18:00,65.3,59.0,29.94,North,0,0.0,0.0,80,0.00,,---,0.00,VWS V14.00,2013-06-09 09:18:00,
2013-06-09 05:23:00,65.5,58.8,29.94,East,90,2.7,2.7,79,0.00,,---,0.00,VWS V14.00,2013-06-09 09:23:00,
2013-06-09 05:28:00,65.5,58.8,29.94,SSW,202,0.0,1.3,79,0.00,,---,0.00,VWS V14.00,2013-06-09 09:28:00,
2013-06-09 05:33:00,65.7,58.6,29.94,NNE,22,0.0,1.6,78,0.00,,---,0.00,VWS V14.00,2013-06-09 09:33:00,
2013-06-09 05:38:00,65.8,58.8,29.97,WNW,292,2.9,2.9,78,0.00,,---,0.00,VWS V14.00,2013-06-09 09:38:00,
2013-06-09 05:43:00,65.8,58.4,29.97,SSW,202,0.9,1.1,77,0.00,,---,0.00,VWS V14.00,2013-06-09 09:43:00,
2013-06-09 05:48:00,65.8,58.4,29.97,WSW,248,2.5,3.4,77,0.00,,---,0.00,VWS V14.00,2013-06-09 09:48:00,
2013-06-09 05:53:00,66.0,59.0,29.97,WSW,248,0.0,0.0,78,0.00,,---,0.00,VWS V14.00,2013-06-09 09:53:00,
2013-06-09 05:58:00,66.0,59.0,29.97,WSW,248,2.7,2.7,78,0.00,,---,0.00,VWS V14.00,2013-06-09 09:58:00,
2013-06-09 06:03:00,66.0,58.6,29.97,WNW,292,2.7,2.7,77,0.00,,---,0.00,VWS V14.00,2013-06-09 10:03:00,
2013-06-09 06:09:00,66.0,58.6,29.97,NW,315,1.6,1.6,77,0.00,,---,0.00,VWS V14.00,2013-06-09 10:09:00,
2013-06-09 06:14:00,66.0,58.6,30.00,WNW,292,0.0,1.6,77,0.00,,---,0.00,VWS V14.00,2013-06-09 10:14:00,
2013-06-09 06:19:00,66.0,58.6,30.00,NW,315,2.5,3.6,77,0.00,,---,0.00,VWS V14.00,2013-06-09 10:19:00,
2013-06-09 06:24:00,66.0,58.6,30.00,WNW,292,0.9,0.9,77,0.00,,---,0.00,VWS V14.00,2013-06-09 10:24:00,
2013-06-09 06:29:00,66.0,58.6,30.00,WNW,292,0.9,0.9,77,0.00,,---,0.00,VWS V14.00,2013-06-09 10:29:00,
2013-06-09 06:34:00,66.2,58.8,30.00,West,270,0.0,0.0,77,0.00,,---,0.00,VWS V14.00,2013-06-09 10:34:00,
2013-06-09 06:39:00,66.4,59.0,30.00,WNW,292,1.6,1.6,77,0.00,,---,0.00,VWS V14.00,2013-06-09 10:39:00,
2013-06-09 06:44:00,66.2,58.8,30.00,WNW,292,0.9,0.9,77,0.00,,---,0.00,VWS V14.00,2013-06-09 10:44:00,
2013-06-09 06:49:00,66.4,59.0,30.00,North,0,1.1,1.1,77,0.00,,---,0.00,VWS V14.00,2013-06-09 10:49:00,
2013-06-09 06:54:00,66.4,59.0,30.00,North,0,0.0,1.6,77,0.00,,---,0.00,VWS V14.00,2013-06-09 10:54:00,
2013-06-09 06:59:00,66.4,59.0,30.00,NNE,22,0.9,0.9,77,0.00,,---,0.00,VWS V14.00,2013-06-09 10:59:00,
2013-06-09 07:04:00,66.6,59.1,30.00,NNE,22,2.2,2.2,77,0.00,,---,0.00,VWS V14.00,2013-06-09 11:04:00,
2013-06-09 07:09:00,66.6,58.8,30.00,NNW,338,3.1,3.1,76,0.00,,---,0.00,VWS V14.00,2013-06-09 11:09:00,
2013-06-09 07:14:00,66.7,58.6,30.00,NNW,338,2.5,2.5,75,0.00,,---,0.00,VWS V14.00,2013-06-09 11:14:00,
2013-06-09 07:19:00,66.7,58.9,30.00,ENE,68,0.0,0.0,76,0.00,,---,0.00,VWS V14.00,2013-06-09 11:19:00,
2013-06-09 07:24:00,66.9,59.1,30.00,WNW,292,0.0,2.0,76,0.00,,---,0.00,VWS V14.00,2013-06-09 11:24:00,
2013-06-09 07:29:00,66.9,58.8,30.00,NW,315,1.3,1.3,75,0.00,,---,0.00,VWS V14.00,2013-06-09 11:29:00,
2013-06-09 07:34:00,67.1,58.9,30.00,NNE,22,1.6,1.6,75,0.00,,---,0.00,VWS V14.00,2013-06-09 11:34:00,
2013-06-09 07:39:00,67.3,59.1,30.00,NNW,338,1.1,1.1,75,0.00,,---,0.00,VWS V14.00,2013-06-09 11:39:00,
2013-06-09 07:44:00,69.3,59.9,30.00,NW,315,0.0,0.0,72,0.00,,---,0.00,VWS V14.00,2013-06-09 11:44:00,
2013-06-09 07:49:00,68.5,59.2,30.00,NNE,22,1.6,1.6,72,0.00,,---,0.00,VWS V14.00,2013-06-09 11:49:00,
2013-06-09 07:54:00,68.9,59.5,30.00,NE,45,1.1,2.5,72,0.00,,---,0.00,VWS V14.00,2013-06-09 11:54:00,
2013-06-09 07:59:00,69.6,59.8,30.00,WSW,248,0.0,1.3,71,0.00,,---,0.00,VWS V14.00,2013-06-09 11:59:00,
2013-06-09 08:04:00,70.5,60.3,30.00,WNW,292,1.3,1.3,70,0.00,,---,0.00,VWS V14.00,2013-06-09 12:04:00,
2013-06-09 08:09:00,70.9,60.6,30.03,West,270,1.3,1.3,70,0.00,,---,0.00,VWS V14.00,2013-06-09 12:09:00,
2013-06-09 08:14:00,69.8,59.2,30.03,West,270,0.0,0.0,69,0.00,,---,0.00,VWS V14.00,2013-06-09 12:14:00,
2013-06-09 08:19:00,71.1,60.0,30.03,West,270,1.1,2.0,68,0.00,,---,0.00,VWS V14.00,2013-06-09 12:19:00,
2013-06-09 08:24:00,70.7,59.2,30.03,NNE,22,1.3,2.0,67,0.00,,---,0.00,VWS V14.00,2013-06-09 12:24:00,
2013-06-09 08:30:00,70.2,59.5,30.03,East,90,1.1,1.6,69,0.00,,---,0.00,VWS V14.00,2013-06-09 12:30:00,
2013-06-09 08:35:00,70.5,59.9,30.03,WSW,248,0.0,0.0,69,0.00,,---,0.00,VWS V14.00,2013-06-09 12:35:00,
2013-06-09 08:41:00,71.1,60.4,30.03,WSW,248,2.5,2.5,69,0.00,,---,0.00,VWS V14.00,2013-06-09 12:41:00,
2013-06-09 08:46:00,71.6,60.5,30.03,West,270,0.0,0.0,68,0.00,,---,0.00,VWS V14.00,2013-06-09 12:46:00,
2013-06-09 08:51:00,73.0,61.9,30.03,WSW,248,0.0,0.0,68,0.00,,---,0.00,VWS V14.00,2013-06-09 12:51:00,
2013-06-09 08:56:00,75.4,62.8,30.03,North,0,0.0,0.0,65,0.00,,---,0.00,VWS V14.00,2013-06-09 12:56:00,
2013-06-09 09:01:00,76.8,61.4,30.03,ENE,68,4.0,4.0,59,0.00,,---,0.00,VWS V14.00,2013-06-09 13:01:00,
2013-06-09 09:07:00,75.9,60.6,30.03,NNW,338,0.0,1.6,59,0.00,,---,0.00,VWS V14.00,2013-06-09 13:07:00,
2013-06-09 09:12:00,75.4,61.9,30.03,NNW,338,0.0,0.0,63,0.00,,---,0.00,VWS V14.00,2013-06-09 13:12:00,
2013-06-09 09:17:00,74.8,61.4,30.03,ENE,68,2.0,2.0,63,0.00,,---,0.00,VWS V14.00,2013-06-09 13:17:00,
2013-06-09 09:22:00,74.7,59.4,30.03,NNW,338,1.1,2.5,59,0.00,,---,0.00,VWS V14.00,2013-06-09 13:22:00,
2013-06-09 09:28:00,74.5,58.8,30.03,ESE,112,0.0,0.9,58,0.00,,---,0.00,VWS V14.00,2013-06-09 13:28:00,
2013-06-09 09:33:00,74.3,59.5,30.03,NW,315,1.6,1.6,60,0.00,,---,0.00,VWS V14.00,2013-06-09 13:33:00,
2013-06-09 09:38:00,74.5,58.8,30.03,WSW,248,0.0,0.0,58,0.00,,---,0.00,VWS V14.00,2013-06-09 13:38:00,
2013-06-09 09:44:00,73.9,58.7,30.03,SSE,158,0.0,1.3,59,0.00,,---,0.00,VWS V14.00,2013-06-09 13:44:00,
2013-06-09 09:49:00,74.3,60.5,30.03,ENE,68,5.8,5.8,62,0.00,,---,0.00,VWS V14.00,2013-06-09 13:49:00,
2013-06-09 09:54:00,74.5,58.3,30.03,ENE,68,2.7,2.7,57,0.00,,---,0.00,VWS V14.00,2013-06-09 13:54:00,
2013-06-09 09:59:00,74.8,59.1,30.03,ESE,112,2.0,2.0,58,0.00,,---,0.00,VWS V14.00,2013-06-09 13:59:00,
2013-06-09 10:04:00,75.6,59.3,30.03,SSE,158,2.0,2.0,57,0.00,,---,0.00,VWS V14.00,2013-06-09 14:04:00,
2013-06-09 10:09:00,75.9,59.1,30.03,ENE,68,2.7,2.7,56,0.00,,---,0.00,VWS V14.00,2013-06-09 14:09:00,
2013-06-09 10:14:00,77.2,58.7,30.03,ENE,68,2.2,2.2,53,0.00,,---,0.00,VWS V14.00,2013-06-09 14:14:00,
2013-06-09 10:19:00,77.5,59.6,30.03,ESE,112,0.0,1.3,54,0.00,,---,0.00,VWS V14.00,2013-06-09 14:19:00,
2013-06-09 10:24:00,78.3,60.8,30.03,NNW,338,1.3,1.3,55,0.00,,---,0.00,VWS V14.00,2013-06-09 14:24:00,
2013-06-09 10:29:00,78.6,58.4,30.03,WSW,248,0.9,1.6,50,0.00,,---,0.00,VWS V14.00,2013-06-09 14:29:00,
2013-06-09 10:34:00,79.5,59.8,30.03,WSW,248,0.0,0.0,51,0.00,,---,0.00,VWS V14.00,2013-06-09 14:34:00,
2013-06-09 10:39:00,78.4,59.4,30.03,WSW,248,0.0,0.0,52,0.00,,---,0.00,VWS V14.00,2013-06-09 14:39:00,
2013-06-09 10:44:00,79.5,58.7,30.03,ENE,68,2.0,2.0,49,0.00,,---,0.00,VWS V14.00,2013-06-09 14:44:00,
2013-06-09 10:49:00,80.6,59.1,30.03,West,270,2.9,3.1,48,0.00,,---,0.00,VWS V14.00,2013-06-09 14:49:00,
2013-06-09 10:54:00,81.0,56.4,30.03,WSW,248,0.0,0.0,43,0.00,,---,0.00,VWS V14.00,2013-06-09 14:54:00,
2013-06-09 11:00:00,80.6,55.4,30.03,ESE,112,1.6,1.6,42,0.00,,---,0.00,VWS V14.00,2013-06-09 15:00:00,
2013-06-09 11:05:00,82.0,60.4,30.03,NW,315,1.1,1.1,48,0.00,,---,0.00,VWS V14.00,2013-06-09 15:05:00,
2013-06-09 11:11:00,82.8,59.9,30.03,NW,315,2.7,2.9,46,0.00,,---,0.00,VWS V14.00,2013-06-09 15:11:00,
2013-06-09 11:16:00,83.7,61.9,30.03,NW,315,2.0,2.9,48,0.00,,---,0.00,VWS V14.00,2013-06-09 15:16:00,
2013-06-09 11:21:00,83.5,59.9,30.03,WSW,248,1.6,1.6,45,0.00,,---,0.00,VWS V14.00,2013-06-09 15:21:00,
2013-06-09 11:27:00,84.0,59.8,30.00,SSW,202,2.5,2.9,44,0.00,,---,0.00,VWS V14.00,2013-06-09 15:27:00,
2013-06-09 11:32:00,84.2,60.0,30.00,SSW,202,0.9,1.3,44,0.00,,---,0.00,VWS V14.00,2013-06-09 15:32:00,
2013-06-09 11:37:00,84.7,61.1,30.00,WSW,248,1.3,2.2,45,0.00,,---,0.00,VWS V14.00,2013-06-09 15:37:00,
2013-06-09 11:43:00,84.7,61.1,30.03,WNW,292,1.6,1.6,45,0.00,,---,0.00,VWS V14.00,2013-06-09 15:43:00,
2013-06-09 11:48:00,83.8,59.6,30.03,ENE,68,3.6,3.6,44,0.00,,---,0.00,VWS V14.00,2013-06-09 15:48:00,
2013-06-09 11:54:00,82.0,58.6,30.00,SSW,202,0.0,0.0,45,0.00,,---,0.00,VWS V14.00,2013-06-09 15:54:00,
2013-06-09 11:59:00,81.1,59.0,30.00,WSW,248,0.0,1.1,47,0.00,,---,0.00,VWS V14.00,2013-06-09 15:59:00,
2013-06-09 12:04:00,80.8,59.3,30.00,WSW,248,0.0,0.0,48,0.00,,---,0.00,VWS V14.00,2013-06-09 16:04:00,
2013-06-09 12:09:00,79.9,58.5,30.00,SE,135,1.3,2.2,48,0.00,,---,0.00,VWS V14.00,2013-06-09 16:09:00,
2013-06-09 12:14:00,79.7,60.0,30.00,West,270,0.0,0.0,51,0.00,,---,0.00,VWS V14.00,2013-06-09 16:14:00,
2013-06-09 12:19:00,78.8,57.5,30.00,ESE,112,2.7,4.9,48,0.00,,---,0.00,VWS V14.00,2013-06-09 16:19:00,
2013-06-09 12:24:00,78.6,58.4,30.00,SSE,158,0.0,1.1,50,0.00,,---,0.00,VWS V14.00,2013-06-09 16:24:00,
2013-06-09 12:30:00,78.4,58.3,30.00,ESE,112,0.0,0.0,50,0.00,,---,0.00,VWS V14.00,2013-06-09 16:30:00,
2013-06-09 12:35:00,78.4,58.8,30.00,SSE,158,0.9,0.9,51,0.00,,---,0.00,VWS V14.00,2013-06-09 16:35:00,
2013-06-09 12:41:00,79.7,59.4,30.00,WSW,248,1.1,1.1,50,0.00,,---,0.00,VWS V14.00,2013-06-09 16:41:00,
2013-06-09 12:46:00,79.9,59.0,30.00,SW,225,1.1,1.1,49,0.00,,---,0.00,VWS V14.00,2013-06-09 16:46:00,
2013-06-09 12:52:00,82.8,61.7,30.00,SSW,202,0.9,0.9,49,0.00,,---,0.00,VWS V14.00,2013-06-09 16:52:00,
2013-06-09 12:57:00,83.3,61.6,30.00,WSW,248,0.9,2.0,48,0.00,,---,0.00,VWS V14.00,2013-06-09 16:57:00,
2013-06-09 13:03:00,83.8,61.5,30.00,WSW,248,1.3,1.3,47,0.00,,---,0.00,VWS V14.00,2013-06-09 17:03:00,
2013-06-09 13:08:00,83.3,62.2,30.00,SW,225,2.5,2.5,49,0.00,,---,0.00,VWS V14.00,2013-06-09 17:08:00,
2013-06-09 13:14:00,83.3,61.6,30.00,SW,225,3.1,3.1,48,0.00,,---,0.00,VWS V14.00,2013-06-09 17:14:00,
2013-06-09 13:19:00,83.5,61.2,30.00,NW,315,2.0,2.0,47,0.00,,---,0.00,VWS V14.00,2013-06-09 17:19:00,
2013-06-09 13:24:00,83.8,62.1,30.00,SSW,202,2.0,2.0,48,0.00,,---,0.00,VWS V14.00,2013-06-09 17:24:00,
2013-06-09 13:29:00,83.5,61.2,30.00,South,180,2.7,2.7,47,0.00,,---,0.00,VWS V14.00,2013-06-09 17:29:00,
2013-06-09 13:34:00,83.5,61.8,30.00,SW,225,0.9,1.6,48,0.00,,---,0.00,VWS V14.00,2013-06-09 17:34:00,
2013-06-09 13:40:00,83.8,62.1,30.00,SSW,202,2.7,2.7,48,0.00,,---,0.00,VWS V14.00,2013-06-09 17:40:00,
2013-06-09 13:45:00,83.7,61.3,30.00,SW,225,2.7,2.7,47,0.00,,---,0.00,VWS V14.00,2013-06-09 17:45:00,
2013-06-09 13:50:00,83.7,61.3,30.00,SSW,202,2.9,2.9,47,0.00,,---,0.00,VWS V14.00,2013-06-09 17:50:00,
2013-06-09 13:55:00,83.7,61.9,29.97,SSW,202,2.2,2.2,48,0.00,,---,0.00,VWS V14.00,2013-06-09 17:55:00,
2013-06-09 14:01:00,83.7,62.5,29.97,WSW,248,1.3,1.6,49,0.00,,---,0.00,VWS V14.00,2013-06-09 18:01:00,
2013-06-09 14:06:00,84.0,62.2,29.97,NNE,22,1.1,1.1,48,0.00,,---,0.00,VWS V14.00,2013-06-09 18:06:00,
2013-06-09 14:11:00,84.6,62.7,29.97,West,270,2.5,2.5,48,0.00,,---,0.00,VWS V14.00,2013-06-09 18:11:00,
2013-06-09 14:16:00,83.8,62.1,29.97,SW,225,2.5,2.5,48,0.00,,---,0.00,VWS V14.00,2013-06-09 18:16:00,
2013-06-09 14:21:00,84.7,62.3,29.97,South,180,2.5,2.5,47,0.00,,---,0.00,VWS V14.00,2013-06-09 18:21:00,
2013-06-09 14:26:00,85.1,61.4,29.97,WSW,248,3.6,3.6,45,0.00,,---,0.00,VWS V14.00,2013-06-09 18:26:00,
2013-06-09 14:32:00,86.4,63.2,29.97,WSW,248,2.9,3.6,46,0.00,,---,0.00,VWS V14.00,2013-06-09 18:32:00,
2013-06-09 14:38:00,86.5,62.1,29.97,WSW,248,1.3,2.0,44,0.00,,---,0.00,VWS V14.00,2013-06-09 18:38:00,
2013-06-09 14:43:00,85.6,61.9,29.97,SSW,202,2.9,2.9,45,0.00,,---,0.00,VWS V14.00,2013-06-09 18:43:00,
2013-06-09 14:48:00,84.9,61.2,29.97,SW,225,2.5,2.5,45,0.00,,---,0.00,VWS V14.00,2013-06-09 18:48:00,
2013-06-09 14:53:00,84.9,61.2,29.97,North,0,2.7,2.7,45,0.00,,---,0.00,VWS V14.00,2013-06-09 18:53:00,
2013-06-09 14:58:00,84.2,61.2,29.97,WSW,248,2.5,2.5,46,0.00,,---,0.00,VWS V14.00,2013-06-09 18:58:00,
2013-06-09 15:03:00,84.2,60.6,29.97,SSE,158,2.9,2.9,45,0.00,,---,0.00,VWS V14.00,2013-06-09 19:03:00,
2013-06-09 15:08:00,84.9,61.2,29.97,West,270,6.3,6.3,45,0.00,,---,0.00,VWS V14.00,2013-06-09 19:08:00,
2013-06-09 15:13:00,85.3,60.9,29.97,South,180,1.3,1.3,44,0.00,,---,0.00,VWS V14.00,2013-06-09 19:13:00,
2013-06-09 15:18:00,85.5,61.7,29.97,SW,225,1.3,1.3,45,0.00,,---,0.00,VWS V14.00,2013-06-09 19:18:00,
2013-06-09 15:24:00,85.8,61.4,29.97,SSE,158,2.5,4.0,44,0.00,,---,0.00,VWS V14.00,2013-06-09 19:24:00,
2013-06-09 15:29:00,86.0,61.6,29.97,WSW,248,3.1,3.1,44,0.00,,---,0.00,VWS V14.00,2013-06-09 19:29:00,
2013-06-09 15:34:00,85.6,61.9,29.97,SSW,202,1.1,1.1,45,0.00,,---,0.00,VWS V14.00,2013-06-09 19:34:00,
2013-06-09 15:39:00,85.5,62.3,29.94,SSE,158,2.0,2.5,46,0.00,,---,0.00,VWS V14.00,2013-06-09 19:39:00,
2013-06-09 15:44:00,85.5,61.1,29.94,WSW,248,2.0,2.2,44,0.00,,---,0.00,VWS V14.00,2013-06-09 19:44:00,
2013-06-09 15:49:00,85.3,60.9,29.94,SSW,202,2.5,3.8,44,0.00,,---,0.00,VWS V14.00,2013-06-09 19:49:00,
2013-06-09 15:54:00,85.1,60.1,29.94,South,180,2.2,2.2,43,0.00,,---,0.00,VWS V14.00,2013-06-09 19:54:00,
2013-06-09 16:00:00,84.0,60.4,29.94,SW,225,2.5,2.7,45,0.00,,---,0.00,VWS V14.00,2013-06-09 20:00:00,
2013-06-09 16:05:00,82.6,59.1,29.94,SW,225,2.5,2.7,45,0.00,,---,0.00,VWS V14.00,2013-06-09 20:05:00,
2013-06-09 16:10:00,82.2,60.0,29.94,SSE,158,2.0,2.7,47,0.00,,---,0.00,VWS V14.00,2013-06-09 20:10:00,
2013-06-09 16:15:00,82.6,60.3,29.94,SSE,158,2.9,2.9,47,0.00,,---,0.00,VWS V14.00,2013-06-09 20:15:00,
2013-06-09 16:20:00,82.6,60.9,29.94,SSE,158,2.5,2.5,48,0.00,,---,0.00,VWS V14.00,2013-06-09 20:20:00,
2013-06-09 16:26:00,83.3,61.0,29.94,SSW,202,2.9,2.9,47,0.00,,---,0.00,VWS V14.00,2013-06-09 20:26:00,
2013-06-09 16:31:00,83.7,61.3,29.94,SSW,202,0.0,1.1,47,0.00,,---,0.00,VWS V14.00,2013-06-09 20:31:00,
2013-06-09 16:36:00,83.7,62.5,29.94,South,180,1.1,1.3,49,0.00,,---,0.00,VWS V14.00,2013-06-09 20:36:00,
2013-06-09 16:42:00,83.8,62.7,29.91,South,180,1.1,1.1,49,0.00,,---,0.00,VWS V14.00,2013-06-09 20:42:00,
2013-06-09 16:47:00,83.7,63.1,29.91,South,180,0.0,0.9,50,0.00,,---,0.00,VWS V14.00,2013-06-09 20:47:00,
2013-06-09 16:52:00,84.4,62.6,29.91,SSW,202,1.1,1.1,48,0.00,,---,0.00,VWS V14.00,2013-06-09 20:52:00,
2013-06-09 16:57:00,84.6,62.7,29.91,ENE,68,1.6,1.6,48,0.00,,---,0.00,VWS V14.00,2013-06-09 20:57:00,
2013-06-09 17:03:00,83.7,62.5,29.91,SSW,202,0.0,0.0,49,0.00,,---,0.00,VWS V14.00,2013-06-09 21:03:00,
2013-06-09 17:08:00,82.8,62.2,29.91,WSW,248,2.0,2.0,50,0.00,,---,0.00,VWS V14.00,2013-06-09 21:08:00,
2013-06-09 17:13:00,82.4,62.5,29.91,South,180,2.0,2.5,51,0.00,,---,0.00,VWS V14.00,2013-06-09 21:13:00,
2013-06-09 17:18:00,82.8,62.2,29.91,SW,225,1.1,2.0,50,0.00,,---,0.00,VWS V14.00,2013-06-09 21:18:00,
2013-06-09 17:23:00,83.5,62.3,29.91,SW,225,2.5,2.9,49,0.00,,---,0.00,VWS V14.00,2013-06-09 21:23:00,
2013-06-09 17:29:00,83.7,62.5,29.91,WSW,248,1.1,2.9,49,0.00,,---,0.00,VWS V14.00,2013-06-09 21:29:00,
2013-06-09 17:35:00,83.3,61.6,29.91,South,180,2.9,2.9,48,0.00,,---,0.00,VWS V14.00,2013-06-09 21:35:00,
2013-06-09 17:40:00,83.1,61.4,29.91,SW,225,1.3,2.2,48,0.00,,---,0.00,VWS V14.00,2013-06-09 21:40:00,
2013-06-09 17:45:00,83.1,61.4,29.91,SSW,202,1.1,1.1,48,0.00,,---,0.00,VWS V14.00,2013-06-09 21:45:00,
2013-06-09 17:50:00,82.9,61.2,29.91,NW,315,2.0,2.0,48,0.00,,---,0.00,VWS V14.00,2013-06-09 21:50:00,
2013-06-09 17:55:00,82.9,61.2,29.91,West,270,4.0,4.0,48,0.00,,---,0.00,VWS V14.00,2013-06-09 21:55:00,
2013-06-09 18:01:00,82.9,61.2,29.91,SW,225,0.9,2.0,48,0.00,,---,0.00,VWS V14.00,2013-06-09 22:01:00,
2013-06-09 18:06:00,82.6,61.5,29.91,SSE,158,1.3,2.0,49,0.00,,---,0.00,VWS V14.00,2013-06-09 22:06:00,
2013-06-09 18:12:00,82.6,61.5,29.91,SW,225,2.7,2.7,49,0.00,,---,0.00,VWS V14.00,2013-06-09 22:12:00,
2013-06-09 18:17:00,82.4,61.9,29.91,WSW,248,2.5,2.7,50,0.00,,---,0.00,VWS V14.00,2013-06-09 22:17:00,
2013-06-09 18:22:00,82.4,61.9,29.91,South,180,0.0,2.0,50,0.00,,---,0.00,VWS V14.00,2013-06-09 22:22:00,
2013-06-09 18:28:00,82.0,62.1,29.91,SSE,158,1.6,1.6,51,0.00,,---,0.00,VWS V14.00,2013-06-09 22:28:00,
2013-06-09 18:33:00,81.5,62.2,29.91,SSE,158,0.0,0.9,52,0.00,,---,0.00,VWS V14.00,2013-06-09 22:33:00,
2013-06-09 18:38:00,81.3,62.0,29.91,SSW,202,2.0,2.0,52,0.00,,---,0.00,VWS V14.00,2013-06-09 22:38:00,
2013-06-09 18:44:00,81.7,62.4,29.91,SSW,202,2.0,2.0,52,0.00,,---,0.00,VWS V14.00,2013-06-09 22:44:00,
2013-06-09 18:49:00,81.5,62.2,29.91,SSE,158,2.0,2.5,52,0.00,,---,0.00,VWS V14.00,2013-06-09 22:49:00,
2013-06-09 18:54:00,81.3,62.0,29.91,SSW,202,2.7,2.7,52,0.00,,---,0.00,VWS V14.00,2013-06-09 22:54:00,
2013-06-09 18:59:00,81.1,61.9,29.91,WSW,248,4.3,4.3,52,0.00,,---,0.00,VWS V14.00,2013-06-09 22:59:00,
2013-06-09 19:04:00,80.8,61.5,29.91,WSW,248,0.0,2.0,52,0.00,,---,0.00,VWS V14.00,2013-06-09 23:04:00,
2013-06-09 19:09:00,80.4,62.3,29.94,WSW,248,1.3,2.9,54,0.00,,---,0.00,VWS V14.00,2013-06-09 23:09:00,
2013-06-09 19:14:00,80.4,62.3,29.94,WSW,248,0.9,1.1,54,0.00,,---,0.00,VWS V14.00,2013-06-09 23:14:00,
2013-06-09 19:19:00,80.1,62.5,29.94,WSW,248,0.0,3.4,55,0.00,,---,0.00,VWS V14.00,2013-06-09 23:19:00,
2013-06-09 19:25:00,79.9,62.3,29.94,WSW,248,0.0,0.0,55,0.00,,---,0.00,VWS V14.00,2013-06-09 23:25:00,
2013-06-09 19:30:00,79.0,62.0,29.94,South,180,1.1,1.1,56,0.00,,---,0.00,VWS V14.00,2013-06-09 23:30:00,
2013-06-09 19:35:00,78.8,62.3,29.94,SSE,158,0.0,1.1,57,0.00,,---,0.00,VWS V14.00,2013-06-09 23:35:00,
2013-06-09 19:40:00,78.4,62.9,29.94,SE,135,1.3,1.3,59,0.00,,---,0.00,VWS V14.00,2013-06-09 23:40:00,
2013-06-09 19:45:00,78.1,63.1,29.94,SW,225,1.6,2.7,60,0.00,,---,0.00,VWS V14.00,2013-06-09 23:45:00,
2013-06-09 19:51:00,77.5,62.6,29.94,SW,225,0.0,0.0,60,0.00,,---,0.00,VWS V14.00,2013-06-09 23:51:00,
2013-06-09 19:56:00,77.0,62.5,29.94,SW,225,0.0,0.0,61,0.00,,---,0.00,VWS V14.00,2013-06-09 23:56:00,
2013-06-09 20:01:00,76.8,62.8,29.94,SW,225,0.0,0.0,62,0.00,,---,0.00,VWS V14.00,2013-06-10 00:01:00,
2013-06-09 20:07:00,76.3,62.8,29.94,SW,225,0.0,0.0,63,0.00,,---,0.00,VWS V14.00,2013-06-10 00:07:00,
2013-06-09 20:12:00,76.3,62.8,29.94,SW,225,0.0,0.0,63,0.00,,---,0.00,VWS V14.00,2013-06-10 00:12:00,
2013-06-09 20:17:00,75.9,62.9,29.94,SW,225,0.0,0.0,64,0.00,,---,0.00,VWS V14.00,2013-06-10 00:17:00,
2013-06-09 20:22:00,75.6,62.5,29.94,SW,225,0.0,0.0,64,0.00,,---,0.00,VWS V14.00,2013-06-10 00:22:00,
2013-06-09 20:27:00,75.4,62.4,29.94,SW,225,0.0,0.0,64,0.00,,---,0.00,VWS V14.00,2013-06-10 00:27:00,
2013-06-09 20:32:00,75.4,62.8,29.94,SW,225,1.1,1.1,65,0.00,,---,0.00,VWS V14.00,2013-06-10 00:32:00,
2013-06-09 20:38:00,75.2,62.6,29.94,WNW,292,2.9,2.9,65,0.00,,---,0.00,VWS V14.00,2013-06-10 00:38:00,
2013-06-09 20:44:00,75.2,63.1,29.94,WSW,248,1.3,2.7,66,0.00,,---,0.00,VWS V14.00,2013-06-10 00:44:00,
2013-06-09 20:49:00,75.0,62.9,29.94,SW,225,2.0,2.0,66,0.00,,---,0.00,VWS V14.00,2013-06-10 00:49:00,
2013-06-09 20:54:00,75.0,62.9,29.97,SW,225,1.1,1.1,66,0.00,,---,0.00,VWS V14.00,2013-06-10 00:54:00,
2013-06-09 20:59:00,74.8,62.7,29.97,SW,225,0.9,1.1,66,0.00,,---,0.00,VWS V14.00,2013-06-10 00:59:00,
2013-06-09 21:04:00,74.7,63.0,29.97,SW,225,1.6,2.0,67,0.00,,---,0.00,VWS V14.00,2013-06-10 01:04:00,
2013-06-09 21:10:00,74.5,62.8,29.97,West,270,0.0,0.9,67,0.00,,---,0.00,VWS V14.00,2013-06-10 01:10:00,
2013-06-09 21:15:00,74.3,62.6,29.97,WNW,292,2.7,2.7,67,0.00,,---,0.00,VWS V14.00,2013-06-10 01:15:00,
2013-06-09 21:20:00,74.3,62.6,29.97,WSW,248,2.2,2.2,67,0.00,,---,0.00,VWS V14.00,2013-06-10 01:20:00,
2013-06-09 21:25:00,74.1,62.5,29.97,West,270,2.5,2.5,67,0.00,,---,0.00,VWS V14.00,2013-06-10 01:25:00,
2013-06-09 21:31:00,73.9,62.3,29.97,WSW,248,2.2,2.9,67,0.00,,---,0.00,VWS V14.00,2013-06-10 01:31:00,
2013-06-09 21:37:00,73.9,62.7,29.97,WSW,248,1.6,3.8,68,0.00,,---,0.00,VWS V14.00,2013-06-10 01:37:00,
2013-06-09 21:42:00,73.8,62.5,30.00,West,270,2.7,2.7,68,0.00,,---,0.00,VWS V14.00,2013-06-10 01:42:00,
2013-06-09 21:47:00,73.8,62.5,30.00,West,270,2.0,2.2,68,0.00,,---,0.00,VWS V14.00,2013-06-10 01:47:00,
2013-06-09 21:53:00,73.8,62.1,30.00,WSW,248,1.6,3.4,67,0.00,,---,0.00,VWS V14.00,2013-06-10 01:53:00,
2013-06-09 21:58:00,73.4,62.2,30.00,SSW,202,0.0,2.5,68,0.00,,---,0.00,VWS V14.00,2013-06-10 01:58:00,
2013-06-09 22:04:00,73.4,62.2,30.00,WSW,248,2.5,2.5,68,0.00,,---,0.00,VWS V14.00,2013-06-10 02:04:00,
2013-06-09 22:10:00,73.4,62.2,30.00,West,270,2.9,2.9,68,0.00,,---,0.00,VWS V14.00,2013-06-10 02:10:00,
2013-06-09 22:16:00,73.2,62.0,30.00,WSW,248,2.5,2.7,68,0.00,,---,0.00,VWS V14.00,2013-06-10 02:16:00,
2013-06-09 22:21:00,73.2,62.0,30.00,SW,225,2.2,2.2,68,0.00,,---,0.00,VWS V14.00,2013-06-10 02:21:00,
2013-06-09 22:27:00,73.0,61.9,30.00,SW,225,2.0,3.4,68,0.00,,---,0.00,VWS V14.00,2013-06-10 02:27:00,
2013-06-09 22:33:00,72.9,61.7,30.00,WSW,248,2.9,4.7,68,0.00,,---,0.00,VWS V14.00,2013-06-10 02:33:00,
2013-06-09 22:38:00,72.7,61.5,30.00,SSW,202,2.7,2.7,68,0.00,,---,0.00,VWS V14.00,2013-06-10 02:38:00,
2013-06-09 22:43:00,72.7,61.5,30.00,WSW,248,6.3,6.3,68,0.00,,---,0.00,VWS V14.00,2013-06-10 02:43:00,
2013-06-09 22:48:00,72.5,61.3,30.00,WSW,248,3.6,3.6,68,0.00,,---,0.00,VWS V14.00,2013-06-10 02:48:00,
2013-06-09 22:53:00,72.3,61.2,30.00,West,270,2.5,2.5,68,0.00,,---,0.00,VWS V14.00,2013-06-10 02:53:00,
2013-06-09 22:58:00,72.3,61.6,30.00,West,270,2.2,3.6,69,0.00,,---,0.00,VWS V14.00,2013-06-10 02:58:00,
2013-06-09 23:04:00,72.0,61.2,30.00,WNW,292,2.0,4.3,69,0.00,,---,0.00,VWS V14.00,2013-06-10 03:04:00,
2013-06-09 23:09:00,72.0,61.2,29.97,West,270,2.7,3.1,69,0.00,,---,0.00,VWS V14.00,2013-06-10 03:09:00,
2013-06-09 23:14:00,71.8,61.1,29.97,SW,225,3.8,3.8,69,0.00,,---,0.00,VWS V14.00,2013-06-10 03:14:00,
2013-06-09 23:19:00,71.8,61.5,29.97,WSW,248,5.6,5.6,70,0.00,,---,0.00,VWS V14.00,2013-06-10 03:19:00,
2013-06-09 23:24:00,71.6,61.3,30.00,WSW,248,2.5,2.5,70,0.00,,---,0.00,VWS V14.00,2013-06-10 03:24:00,
2013-06-09 23:29:00,71.6,61.3,30.00,WSW,248,2.0,2.0,70,0.00,,---,0.00,VWS V14.00,2013-06-10 03:29:00,
2013-06-09 23:34:00,71.4,61.1,30.00,West,270,3.6,3.6,70,0.00,,---,0.00,VWS V14.00,2013-06-10 03:34:00,
2013-06-09 23:39:00,71.2,61.4,30.00,WSW,248,3.6,8.1,71,0.00,,---,0.00,VWS V14.00,2013-06-10 03:39:00,
2013-06-09 23:44:00,71.2,61.4,30.00,WSW,248,6.5,6.5,71,0.00,,---,0.00,VWS V14.00,2013-06-10 03:44:00,
2013-06-09 23:49:00,71.2,61.4,30.00,WSW,248,5.4,5.4,71,0.00,,---,0.00,VWS V14.00,2013-06-10 03:49:00,
2013-06-09 23:54:00,71.1,61.2,30.00,WSW,248,2.5,3.8,71,0.00,,---,0.00,VWS V14.00,2013-06-10 03:54:00,